Time;durP1;ratioP1;P1;durP2;ratioP2;P2;SDS_P1;SDS_P2;PMS_P1;PMS_P2;Temp;Humidity;BMP_temperature;BMP_pressure;BME280_temperature;BME280_humidity;BME280_pressure;Samples;Min_cycle;Max_cycle;Signal;HPM_P1;HPM_P2
2022/11/19 00:01:54;;;;;;;1.23;1.13;;;8.00;99.90;;;;;;5033722;28;20530;-65
2022/11/19 00:04:21;;;;;;;1.30;1.00;;;8.00;99.90;;;;;;5036419;28;20452;-64
2022/11/19 00:06:49;;;;;;;1.00;1.00;;;8.00;99.90;;;;;;5036854;28;20853;-66
2022/11/19 00:09:16;;;;;;;1.87;1.20;;;7.90;99.90;;;;;;5035996;28;20953;-65
2022/11/19 00:14:28;;;;;;;1.20;1.20;;;7.90;99.90;;;;;;5033865;28;20430;-64
2022/11/19 00:16:55;;;;;;;2.00;1.90;;;8.00;99.90;;;;;;5033746;28;20448;-65
2022/11/19 00:19:21;;;;;;;1.87;1.77;;;8.00;99.90;;;;;;5033580;28;21004;-64
2022/11/19 00:21:49;;;;;;;2.07;1.93;;;8.00;99.90;;;;;;5034137;28;20588;-64
2022/11/19 00:24:15;;;;;;;2.33;2.13;;;8.00;99.90;;;;;;5034304;28;20452;-65
2022/11/19 00:26:42;;;;;;;1.77;1.67;;;8.00;99.90;;;;;;5034648;28;20463;-64
2022/11/19 00:29:10;;;;;;;1.90;1.80;;;8.00;99.90;;;;;;5034983;28;20510;-64
2022/11/19 00:31:38;;;;;;;2.43;2.20;;;8.00;99.90;;;;;;5034593;28;20455;-65
2022/11/19 00:34:05;;;;;;;2.40;2.30;;;8.00;99.90;;;;;;5035937;28;20814;-65
2022/11/19 00:36:31;;;;;;;2.77;2.57;;;8.10;99.90;;;;;;5038900;28;20525;-65
2022/11/19 00:38:58;;;;;;;3.43;2.23;;;8.10;99.90;;;;;;5038403;28;20460;-64
2022/11/19 00:41:25;;;;;;;3.03;2.40;;;8.10;99.90;;;;;;5038010;28;20994;-65
2022/11/19 00:43:50;;;;;;;2.23;2.10;;;8.10;99.90;;;;;;5038412;28;20456;-65
2022/11/19 00:46:19;;;;;;;2.20;2.10;;;8.20;99.90;;;;;;5038230;28;20471;-65
2022/11/19 00:48:47;;;;;;;3.23;2.27;;;8.10;99.90;;;;;;5038152;28;20193;-64
2022/11/19 00:51:15;;;;;;;2.40;2.30;;;8.20;99.90;;;;;;5038320;28;20451;-65
2022/11/19 00:53:42;;;;;;;2.33;1.87;;;8.20;99.90;;;;;;5039166;28;20444;-65
2022/11/19 00:56:10;;;;;;;2.97;2.30;;;8.20;99.90;;;;;;5037338;28;20479;-65
2022/11/19 00:58:37;;;;;;;2.43;2.20;;;8.20;99.90;;;;;;5037501;28;20459;-65
2022/11/19 01:01:05;;;;;;;2.07;1.97;;;8.20;99.90;;;;;;5037318;28;21005;-64
2022/11/19 01:03:32;;;;;;;2.37;2.27;;;8.30;99.90;;;;;;5037439;28;20838;-65
2022/11/19 01:06:00;;;;;;;1.67;1.57;;;8.30;99.90;;;;;;5037264;28;20537;-65
2022/11/19 01:08:27;;;;;;;2.00;1.80;;;8.30;99.90;;;;;;5037380;28;20456;-65
2022/11/19 01:10:54;;;;;;;2.73;1.60;;;8.20;99.90;;;;;;5037982;28;20510;-65
2022/11/19 01:13:36;;;;;;;2.90;1.80;;;8.20;99.90;;;;;;5037876;28;20448;-65
2022/11/19 01:16:05;;;;;;;1.97;1.73;;;8.20;99.90;;;;;;5037875;28;20507;-65
2022/11/19 01:18:32;;;;;;;1.60;1.50;;;8.30;99.90;;;;;;5040035;28;20482;-65
2022/11/19 01:21:01;;;;;;;1.60;1.53;;;8.30;99.90;;;;;;5049005;28;20451;-65
2022/11/19 01:23:28;;;;;;;1.57;1.47;;;8.30;99.90;;;;;;5054886;28;20482;-64
2022/11/19 01:25:54;;;;;;;1.63;1.53;;;8.30;99.90;;;;;;5053042;28;20483;-66
2022/11/19 01:28:21;;;;;;;2.60;1.50;;;8.30;99.90;;;;;;5042569;28;20447;-65
2022/11/19 01:30:48;;;;;;;1.43;1.30;;;8.30;99.90;;;;;;5042400;28;20455;-65
2022/11/19 01:33:15;;;;;;;1.57;1.50;;;8.30;99.90;;;;;;5047382;28;20475;-66
2022/11/19 01:35:41;;;;;;;4.33;1.70;;;8.30;99.90;;;;;;5048815;28;20475;-66
2022/11/19 01:38:10;;;;;;;3.33;1.80;;;8.30;99.90;;;;;;5049497;28;20451;-65
2022/11/19 01:40:44;;;;;;;2.30;1.40;;;8.30;99.90;;;;;;5046521;28;20505;-65
2022/11/19 01:43:12;;;;;;;1.70;1.60;;;8.30;99.90;;;;;;5046879;28;20978;-65
2022/11/19 01:45:41;;;;;;;2.27;1.80;;;8.30;99.90;;;;;;5042150;28;20530;-66
2022/11/19 01:48:11;;;;;;;1.67;1.57;;;8.20;99.90;;;;;;5037705;28;20456;-66
2022/11/19 01:50:44;;;;;;;2.47;1.67;;;8.30;99.90;;;;;;5037314;28;20456;-66
2022/11/19 01:53:13;;;;;;;1.63;1.53;;;8.30;99.90;;;;;;5036272;28;20948;-66
2022/11/19 01:55:42;;;;;;;2.53;2.00;;;8.30;99.90;;;;;;5036368;28;20478;-66
2022/11/19 01:58:11;;;;;;;2.20;2.00;;;8.30;99.90;;;;;;5037031;28;20452;-65
2022/11/19 02:00:38;;;;;;;1.80;1.67;;;8.30;99.90;;;;;;5036228;28;20448;-64
2022/11/19 02:03:04;;;;;;;1.80;1.70;;;8.30;99.90;;;;;;5035684;28;20817;-65
2022/11/19 02:05:31;;;;;;;2.10;2.00;;;8.30;99.90;;;;;;5035754;28;20983;-65
2022/11/19 02:07:58;;;;;;;1.90;1.80;;;8.30;99.90;;;;;;5036112;28;20451;-65
2022/11/19 02:10:35;;;;;;;2.23;2.00;;;8.30;99.90;;;;;;5035889;28;20460;-65
2022/11/19 02:13:11;;;;;;;1.97;1.87;;;8.30;99.90;;;;;;5035706;28;20903;-65
2022/11/19 02:15:43;;;;;;;6.07;2.50;;;8.30;99.90;;;;;;5036093;28;20480;-64
2022/11/19 02:18:38;;;;;;;2.27;2.07;;;8.30;99.90;;;;;;5035506;28;20966;-65
2022/11/19 02:21:20;;;;;;;2.17;1.97;;;8.20;99.90;;;;;;5022400;28;20526;-65
2022/11/19 02:24:21;;;;;;;1.90;1.80;;;8.20;99.90;;;;;;5035701;28;20475;-64
2022/11/19 02:27:14;;;;;;;2.00;1.80;;;8.10;99.90;;;;;;5036462;28;20436;-64
2022/11/19 02:30:01;;;;;;;2.67;1.87;;;8.00;99.90;;;;;;5035468;28;20826;-65
2022/11/19 02:32:32;;;;;;;1.87;1.87;;;8.00;99.90;;;;;;5035590;28;20482;-65
2022/11/19 02:35:06;;;;;;;2.10;2.00;;;7.90;99.90;;;;;;5036443;28;20815;-66
2022/11/19 02:37:40;;;;;;;2.17;2.00;;;7.90;99.90;;;;;;5035250;28;20455;-65
2022/11/19 02:40:12;;;;;;;2.30;2.20;;;7.90;99.90;;;;;;5035268;28;20495;-64
2022/11/19 02:42:46;;;;;;;2.10;2.00;;;8.00;99.90;;;;;;5035255;28;20511;-65
2022/11/19 02:45:19;;;;;;;2.10;1.80;;;8.00;99.90;;;;;;5035208;28;20482;-65
2022/11/19 02:47:49;;;;;;;2.00;1.90;;;8.00;99.90;;;;;;5035112;28;20436;-66
2022/11/19 02:50:19;;;;;;;1.90;1.80;;;8.00;99.90;;;;;;5035030;28;20451;-65
2022/11/19 02:52:47;;;;;;;1.50;1.50;;;8.00;99.90;;;;;;5034820;28;20518;-65
2022/11/19 02:55:15;;;;;;;1.90;1.57;;;8.00;99.90;;;;;;5034510;28;20483;-65
2022/11/19 02:57:43;;;;;;;1.70;1.70;;;7.90;99.90;;;;;;5033948;28;20806;-64
2022/11/19 03:05:51;;;;;;;1.60;1.60;;;7.80;99.90;;;;;;5035052;28;20974;-65
2022/11/19 03:08:18;;;;;;;1.60;1.50;;;7.80;99.90;;;;;;5035058;28;20450;-65
2022/11/19 03:10:53;;;;;;;1.67;1.50;;;7.80;99.90;;;;;;5034967;28;20448;-65
2022/11/19 03:19:04;;;;;;;3.03;1.37;;;7.90;99.90;;;;;;5034816;28;20466;-64
2022/11/19 03:21:36;;;;;;;1.80;1.53;;;7.90;99.90;;;;;;5039704;28;20440;-65
2022/11/19 03:24:07;;;;;;;1.67;1.57;;;7.90;99.90;;;;;;5050850;28;20487;-65
2022/11/19 03:26:39;;;;;;;2.07;1.60;;;8.00;99.90;;;;;;5049711;28;20473;-65
2022/11/19 03:29:10;;;;;;;1.70;1.60;;;8.00;99.90;;;;;;5038890;28;20967;-64
2022/11/19 03:31:38;;;;;;;1.50;1.50;;;8.00;99.90;;;;;;5034631;28;20444;-65
2022/11/19 03:34:11;;;;;;;1.70;1.60;;;8.00;99.90;;;;;;5033912;28;20452;-66
2022/11/19 03:36:40;;;;;;;1.73;1.63;;;8.00;99.90;;;;;;5034079;28;20476;-65
2022/11/19 03:39:11;;;;;;;2.20;1.90;;;8.10;99.90;;;;;;5034026;28;20880;-65
2022/11/19 03:41:40;;;;;;;2.00;1.60;;;8.10;99.90;;;;;;5034030;28;20525;-65
2022/11/19 03:44:14;;;;;;;1.67;1.57;;;8.20;99.90;;;;;;5033622;28;20511;-65
2022/11/19 03:46:42;;;;;;;2.47;1.70;;;8.20;99.90;;;;;;5033940;28;20483;-64
2022/11/19 03:49:13;;;;;;;2.23;1.70;;;8.20;99.90;;;;;;5034021;28;20452;-65
2022/11/19 03:51:44;;;;;;;1.57;1.47;;;8.20;99.90;;;;;;5033744;28;20518;-65
2022/11/19 03:54:11;;;;;;;1.73;1.63;;;8.20;99.90;;;;;;5034026;28;20440;-64
2022/11/19 03:56:40;;;;;;;1.83;1.83;;;8.30;99.90;;;;;;5033945;28;20878;-64
2022/11/19 03:59:09;;;;;;;1.20;1.20;;;8.20;99.90;;;;;;5033996;28;20459;-65
2022/11/19 04:01:36;;;;;;;2.00;1.90;;;8.30;99.90;;;;;;5033816;28;20452;-65
2022/11/19 04:06:49;;;;;;;1.30;1.30;;;8.30;99.90;;;;;;5037571;28;20483;-65
2022/11/19 04:09:16;;;;;;;1.77;1.40;;;8.30;99.90;;;;;;5034900;28;20452;-66
2022/11/19 04:11:43;;;;;;;2.23;1.93;;;8.30;99.90;;;;;;5033770;28;20456;-65
2022/11/19 04:14:09;;;;;;;1.20;1.20;;;8.30;99.90;;;;;;5036106;28;20487;-65
2022/11/19 04:16:36;;;;;;;1.50;1.40;;;8.30;99.90;;;;;;5035829;28;20874;-65
2022/11/19 04:19:03;;;;;;;1.70;1.70;;;8.30;99.90;;;;;;5035251;28;20486;-65
2022/11/19 04:21:30;;;;;;;2.20;2.10;;;8.30;99.90;;;;;;5033243;28;21009;-65
2022/11/19 04:23:58;;;;;;;2.30;2.20;;;8.30;99.90;;;;;;5033453;28;20503;-66
2022/11/19 04:26:24;;;;;;;2.10;2.00;;;8.30;99.90;;;;;;5033422;28;20532;-65
2022/11/19 04:28:52;;;;;;;3.57;3.37;;;8.30;99.90;;;;;;5033520;28;20506;-64
2022/11/19 04:31:18;;;;;;;3.97;3.67;;;8.30;99.90;;;;;;5033486;28;20452;-64
2022/11/19 04:33:45;;;;;;;3.30;3.10;;;8.30;99.90;;;;;;5033515;28;20452;-66
2022/11/19 04:36:12;;;;;;;3.00;2.87;;;8.30;99.90;;;;;;5033513;28;20472;-64
2022/11/19 04:38:38;;;;;;;2.30;2.10;;;8.30;99.90;;;;;;5033597;28;20456;-65
2022/11/19 04:41:06;;;;;;;2.40;2.20;;;8.30;99.90;;;;;;5033439;28;20522;-65
2022/11/19 04:43:33;;;;;;;2.40;1.83;;;8.30;99.90;;;;;;5033506;28;20495;-65
2022/11/19 04:46:00;;;;;;;2.07;1.73;;;8.30;99.90;;;;;;5033348;28;20487;-65
2022/11/19 04:48:26;;;;;;;1.80;1.70;;;8.30;99.90;;;;;;5033464;28;20863;-65
2022/11/19 04:50:53;;;;;;;1.93;1.90;;;8.30;99.90;;;;;;5032899;28;20948;-65
2022/11/19 04:53:20;;;;;;;2.13;1.93;;;8.30;99.90;;;;;;5032963;28;20452;-65
2022/11/19 04:55:46;;;;;;;2.47;1.70;;;8.20;99.90;;;;;;5033280;28;20479;-65
2022/11/19 04:58:14;;;;;;;2.20;2.00;;;8.20;99.90;;;;;;5033399;28;20510;-64
2022/11/19 05:00:41;;;;;;;3.50;2.53;;;8.20;99.90;;;;;;5033274;28;20452;-64
2022/11/19 05:03:08;;;;;;;2.10;2.00;;;8.30;99.90;;;;;;5033470;28;20472;-66
2022/11/19 05:05:34;;;;;;;2.17;1.97;;;8.20;99.90;;;;;;5033328;28;20472;-65
2022/11/19 05:08:01;;;;;;;3.17;2.17;;;8.20;99.90;;;;;;5033302;28;20505;-65
2022/11/19 05:10:28;;;;;;;2.50;2.30;;;8.20;99.90;;;;;;5033315;28;20456;-64
2022/11/19 05:12:54;;;;;;;14.30;11.23;;;8.20;99.90;;;;;;5033444;28;20452;-65
2022/11/19 05:15:22;;;;;;;27.30;20.53;;;8.20;99.90;;;;;;5033330;28;20472;-64
2022/11/19 05:17:49;;;;;;;20.03;15.00;;;8.30;99.90;;;;;;5033752;28;20459;-66
2022/11/19 05:20:16;;;;;;;13.67;10.77;;;8.30;99.90;;;;;;5033513;28;20456;-65
2022/11/19 05:22:43;;;;;;;6.17;5.60;;;8.30;99.90;;;;;;5039066;28;20479;-65
2022/11/19 05:25:10;;;;;;;3.93;3.37;;;8.40;99.90;;;;;;5053769;28;20463;-65
2022/11/19 05:27:36;;;;;;;4.10;2.90;;;8.40;99.90;;;;;;5051556;28;20452;-66
2022/11/19 05:30:03;;;;;;;2.70;2.50;;;8.40;99.90;;;;;;5044572;28;20452;-65
2022/11/19 05:32:31;;;;;;;1.93;1.60;;;8.40;99.90;;;;;;5036710;28;20452;-65
2022/11/19 05:34:58;;;;;;;1.80;1.70;;;8.50;99.90;;;;;;5036503;28;20472;-65
2022/11/19 05:37:25;;;;;;;1.93;1.80;;;8.50;99.90;;;;;;5036120;28;21021;-66
2022/11/19 05:39:51;;;;;;;2.63;1.50;;;8.60;99.90;;;;;;5038891;28;20514;-65
2022/11/19 05:42:18;;;;;;;1.70;1.70;;;8.60;99.90;;;;;;5036228;28;20448;-66
2022/11/19 05:44:45;;;;;;;1.70;1.60;;;8.50;99.90;;;;;;5036057;28;20491;-65
2022/11/19 05:47:11;;;;;;;1.63;1.53;;;8.50;99.90;;;;;;5036141;28;20869;-66
2022/11/19 05:49:39;;;;;;;1.47;1.37;;;8.50;99.90;;;;;;5035835;28;20936;-64
2022/11/19 05:52:06;;;;;;;1.87;1.70;;;8.50;99.90;;;;;;5035925;28;20464;-64
2022/11/19 05:54:33;;;;;;;1.30;1.30;;;8.50;99.90;;;;;;5036026;28;20448;-64
2022/11/19 05:56:59;;;;;;;2.40;2.00;;;8.50;99.90;;;;;;5036055;28;20452;-65
2022/11/19 05:59:26;;;;;;;2.00;1.87;;;8.40;99.90;;;;;;5035630;28;21009;-64
2022/11/19 06:01:52;;;;;;;3.57;1.50;;;8.40;99.90;;;;;;5035968;28;20845;-64
2022/11/19 06:04:19;;;;;;;2.93;2.07;;;8.40;99.90;;;;;;5035746;28;20480;-65
2022/11/19 06:06:47;;;;;;;1.80;1.70;;;8.40;99.90;;;;;;5035821;28;20456;-65
2022/11/19 06:09:14;;;;;;;1.80;1.70;;;8.40;99.90;;;;;;5035528;28;20909;-65
2022/11/19 06:11:50;;;;;;;1.60;1.50;;;8.40;99.90;;;;;;5035636;28;20510;-65
2022/11/19 06:14:17;;;;;;;3.40;1.50;;;8.40;99.90;;;;;;5035648;28;20436;-64
2022/11/19 06:16:44;;;;;;;2.77;1.80;;;8.50;99.90;;;;;;5035547;28;20525;-65
2022/11/19 06:19:11;;;;;;;1.70;1.60;;;8.50;99.90;;;;;;5036473;28;20460;-65
2022/11/19 06:21:38;;;;;;;1.60;1.50;;;8.50;99.90;;;;;;5035430;28;20445;-65
2022/11/19 06:24:06;;;;;;;1.60;1.50;;;8.50;99.90;;;;;;5035481;28;20480;-65
2022/11/19 06:26:33;;;;;;;1.93;1.83;;;8.50;99.90;;;;;;5035574;28;20467;-65
2022/11/19 06:29:00;;;;;;;2.60;2.40;;;8.50;99.90;;;;;;5036018;28;20452;-66
2022/11/19 06:31:27;;;;;;;2.37;2.27;;;8.50;99.90;;;;;;5035088;28;20450;-66
2022/11/19 06:33:54;;;;;;;2.20;2.10;;;8.50;99.90;;;;;;5035461;28;20447;-65
2022/11/19 06:36:20;;;;;;;2.77;2.00;;;8.50;99.90;;;;;;5036446;28;20468;-65
2022/11/19 06:38:47;;;;;;;3.33;2.40;;;8.50;99.90;;;;;;5035137;28;20943;-65
2022/11/19 06:41:15;;;;;;;2.30;2.20;;;8.50;99.90;;;;;;5035160;28;20456;-65
2022/11/19 06:43:42;;;;;;;2.23;2.13;;;8.50;99.90;;;;;;5034869;28;20472;-65
2022/11/19 06:46:09;;;;;;;2.37;2.17;;;8.40;99.90;;;;;;5035137;28;20526;-66
2022/11/19 06:48:35;;;;;;;2.43;2.33;;;8.40;99.90;;;;;;5035216;28;20452;-65
2022/11/19 06:51:02;;;;;;;2.20;2.10;;;8.40;99.90;;;;;;5035166;28;20864;-65
2022/11/19 06:53:29;;;;;;;1.90;1.80;;;8.40;99.90;;;;;;5034906;28;20460;-64
2022/11/19 06:55:57;;;;;;;1.90;1.83;;;8.40;99.90;;;;;;5034774;28;20546;-65
2022/11/19 06:58:25;;;;;;;1.83;1.73;;;8.30;99.90;;;;;;5035007;28;20509;-65
2022/11/19 07:00:52;;;;;;;2.70;2.20;;;8.30;99.90;;;;;;5035234;28;20451;-65
2022/11/19 07:03:18;;;;;;;2.00;1.90;;;8.30;99.90;;;;;;5034917;28;20478;-65
2022/11/19 07:05:46;;;;;;;1.83;1.77;;;8.40;99.90;;;;;;5035004;28;20525;-64
2022/11/19 07:08:13;;;;;;;2.57;2.47;;;8.40;99.90;;;;;;5034739;28;20501;-64
2022/11/19 07:10:40;;;;;;;2.43;2.23;;;8.40;99.90;;;;;;5035509;28;20502;-65
2022/11/19 07:13:06;;;;;;;2.20;2.10;;;8.40;99.90;;;;;;5036848;28;20951;-64
2022/11/19 07:15:34;;;;;;;2.37;1.90;;;8.40;99.90;;;;;;5034783;28;20530;-65
2022/11/19 07:18:01;;;;;;;2.43;2.23;;;8.40;99.90;;;;;;5034909;28;20547;-65
2022/11/19 07:20:28;;;;;;;2.13;2.03;;;8.40;99.90;;;;;;5034852;28;20509;-65
2022/11/19 07:22:55;;;;;;;2.40;2.13;;;8.40;99.90;;;;;;5034659;28;20464;-65
2022/11/19 07:25:21;;;;;;;2.30;2.10;;;8.40;99.90;;;;;;5048330;28;20491;-64
2022/11/19 07:27:48;;;;;;;2.20;2.10;;;8.40;99.90;;;;;;5051800;28;20470;-64
2022/11/19 07:30:16;;;;;;;2.30;1.90;;;8.40;99.90;;;;;;5049507;28;20455;-65
2022/11/19 07:32:44;;;;;;;1.90;1.90;;;8.30;99.90;;;;;;5034757;28;20525;-64
2022/11/19 07:35:11;;;;;;;2.40;2.30;;;8.30;99.90;;;;;;5034338;28;20468;-63
2022/11/19 07:37:38;;;;;;;2.30;2.20;;;8.30;99.90;;;;;;5035142;28;20858;-63
2022/11/19 07:40:06;;;;;;;2.30;2.20;;;8.40;99.90;;;;;;5033842;28;20856;-64
2022/11/19 07:42:50;;;;;;;2.60;2.27;;;8.40;99.90;;;;;;5034077;28;20483;-64
2022/11/19 07:45:17;;;;;;;2.60;2.50;;;8.50;99.90;;;;;;5033386;28;20900;-65
2022/11/19 07:47:45;;;;;;;2.13;1.90;;;8.70;99.90;;;;;;5034028;28;20475;-65
2022/11/19 07:50:13;;;;;;;1.63;1.57;;;9.30;99.90;;;;;;5033854;28;20939;-64
2022/11/19 07:52:39;;;;;;;1.50;1.50;;;9.90;99.90;;;;;;5033885;28;20464;-65
2022/11/19 07:55:06;;;;;;;1.67;1.60;;;10.20;99.90;;;;;;5034094;28;20471;-65
2022/11/19 07:57:33;;;;;;;2.27;2.07;;;10.30;99.90;;;;;;5033607;28;20939;-66
2022/11/19 08:00:00;;;;;;;1.80;1.70;;;10.40;99.90;;;;;;5033850;28;20455;-65
2022/11/19 08:02:27;;;;;;;4.10;1.90;;;10.40;99.90;;;;;;5033925;28;20491;-65
2022/11/19 08:04:54;;;;;;;2.10;2.00;;;10.40;99.90;;;;;;5033667;28;20480;-65
2022/11/19 08:07:21;;;;;;;1.70;1.70;;;10.40;99.90;;;;;;5034005;28;20455;-64
2022/11/19 08:09:48;;;;;;;1.80;1.73;;;10.50;99.90;;;;;;5033768;28;20964;-65
2022/11/19 08:12:15;;;;;;;2.27;2.17;;;10.70;99.90;;;;;;5033578;28;20640;-65
2022/11/19 08:14:41;;;;;;;2.00;1.90;;;10.90;99.90;;;;;;5033543;28;20851;-64
2022/11/19 08:19:52;;;;;;;2.07;1.80;;;11.00;99.90;;;;;;5033866;28;20939;-65
2022/11/19 08:22:20;;;;;;;1.80;1.70;;;11.10;99.90;;;;;;5035239;28;20474;-65
2022/11/19 08:24:47;;;;;;;2.70;1.80;;;11.20;99.90;;;;;;5034858;28;20491;-65
2022/11/19 08:27:14;;;;;;;1.60;1.50;;;11.20;99.90;;;;;;5034138;28;20483;-65
2022/11/19 08:29:40;;;;;;;1.30;1.30;;;11.60;99.90;;;;;;5033633;28;20452;-65
2022/11/19 08:32:07;;;;;;;1.70;1.60;;;12.00;99.90;;;;;;5032862;28;20460;-65
2022/11/19 08:34:34;;;;;;;1.43;1.43;;;12.80;99.90;;;;;;5033871;28;20200;-65
2022/11/19 08:37:00;;;;;;;3.43;1.53;;;14.10;99.90;;;;;;5033679;28;20458;-65
2022/11/19 08:39:28;;;;;;;1.67;1.57;;;15.20;99.90;;;;;;5033749;28;20502;-65
2022/11/19 08:44:39;;;;;;;2.40;2.30;;;17.00;99.90;;;;;;5036614;28;20506;-65
2022/11/19 08:47:06;;;;;;;1.87;1.77;;;17.70;99.90;;;;;;5033693;28;20448;-65
2022/11/19 08:49:32;;;;;;;1.47;1.40;;;18.10;99.90;;;;;;5033598;28;20475;-65
2022/11/19 08:51:59;;;;;;;1.83;1.73;;;18.20;99.90;;;;;;5033185;28;20460;-65
2022/11/19 08:54:27;;;;;;;1.80;1.70;;;18.10;99.90;;;;;;5033589;28;20452;-65
2022/11/19 08:56:54;;;;;;;1.67;1.67;;;17.40;99.90;;;;;;5037275;28;20452;-65
2022/11/19 08:59:20;;;;;;;2.17;1.77;;;16.80;99.90;;;;;;5037247;28;20456;-65
2022/11/19 09:01:48;;;;;;;3.77;1.93;;;16.10;99.90;;;;;;5037034;28;20936;-64
2022/11/19 09:04:15;;;;;;;2.23;2.07;;;15.70;99.90;;;;;;5036807;28;20991;-64
2022/11/19 09:06:42;;;;;;;1.97;1.87;;;15.40;99.90;;;;;;5037302;28;20475;-64
2022/11/19 09:09:09;;;;;;;4.93;2.00;;;15.20;99.90;;;;;;5037116;28;20456;-65
2022/11/19 09:11:38;;;;;;;2.17;2.00;;;15.10;99.90;;;;;;5037238;28;20891;-65
2022/11/19 09:14:05;;;;;;;4.10;2.53;;;14.90;99.90;;;;;;5037070;28;20452;-65
2022/11/19 09:16:31;;;;;;;2.00;1.90;;;14.60;99.90;;;;;;5037095;28;20476;-65
2022/11/19 09:19:00;;;;;;;1.70;1.70;;;14.30;99.90;;;;;;5036896;28;20463;-65
2022/11/19 09:21:26;;;;;;;2.20;2.10;;;14.00;99.90;;;;;;5041781;28;20447;-64
2022/11/19 09:23:53;;;;;;;2.20;2.00;;;13.80;99.90;;;;;;5043055;28;20452;-64
2022/11/19 09:26:20;;;;;;;1.90;1.80;;;13.50;99.90;;;;;;5044343;28;20476;-64
2022/11/19 09:28:48;;;;;;;2.30;2.20;;;13.30;99.90;;;;;;5044720;28;20448;-64
2022/11/19 09:31:16;;;;;;;2.13;2.03;;;13.10;99.90;;;;;;5044798;28;20452;-64
2022/11/19 09:33:44;;;;;;;2.80;2.67;;;12.90;99.90;;;;;;5037968;28;20460;-64
2022/11/19 09:36:12;;;;;;;2.30;2.10;;;12.80;99.90;;;;;;5036981;28;20526;-65
2022/11/19 09:38:39;;;;;;;2.77;2.57;;;12.70;99.90;;;;;;5037071;28;20463;-65
2022/11/19 09:41:29;;;;;;;3.33;2.53;;;12.50;99.90;;;;;;5036830;28;20554;-65
2022/11/19 09:44:09;;;;;;;3.70;2.80;;;12.40;99.90;;;;;;5037139;28;20452;-65
2022/11/19 09:46:47;;;;;;;2.47;2.37;;;12.40;99.90;;;;;;5036894;28;20476;-64
2022/11/19 09:49:18;;;;;;;2.23;2.13;;;12.50;99.90;;;;;;5037721;28;20448;-64
2022/11/19 09:51:51;;;;;;;2.00;1.80;;;12.40;99.90;;;;;;5039056;28;20460;-63
2022/11/19 09:54:20;;;;;;;2.80;2.47;;;12.20;99.90;;;;;;5054545;28;20479;-63
2022/11/19 09:56:49;;;;;;;2.40;2.23;;;12.20;99.90;;;;;;5054812;28;20451;-64
2022/11/19 09:59:24;;;;;;;2.40;2.20;;;12.10;99.90;;;;;;5056207;28;20448;-65
2022/11/19 10:01:51;;;;;;;3.50;2.30;;;12.00;99.90;;;;;;5056728;28;20436;-64
2022/11/19 10:04:22;;;;;;;2.70;2.30;;;11.90;99.90;;;;;;5045106;28;20476;-64
2022/11/19 10:07:01;;;;;;;2.47;2.13;;;11.80;99.90;;;;;;5035854;28;20439;-64
2022/11/19 10:09:41;;;;;;;1.77;1.70;;;11.80;99.90;;;;;;5036244;28;20908;-64
2022/11/19 10:12:20;;;;;;;4.97;2.83;;;11.80;99.90;;;;;;5036426;28;20440;-64
2022/11/19 10:15:08;;;;;;;4.17;2.70;;;11.80;99.90;;;;;;5039514;28;20478;-63
2022/11/19 10:17:48;;;;;;;2.50;2.40;;;11.80;99.90;;;;;;5038272;28;20799;-64
2022/11/19 10:20:29;;;;;;;2.90;2.63;;;11.70;99.90;;;;;;5035912;28;20486;-63
2022/11/19 10:23:00;;;;;;;4.30;2.73;;;11.50;99.90;;;;;;5046827;28;20440;-64
2022/11/19 10:25:32;;;;;;;3.67;2.87;;;11.60;99.90;;;;;;5050552;28;20876;-65
2022/11/19 10:28:08;;;;;;;2.70;2.50;;;11.60;99.90;;;;;;5050366;28;20440;-64
2022/11/19 10:30:37;;;;;;;2.43;2.33;;;11.60;99.90;;;;;;5050771;28;20435;-64
2022/11/19 10:33:11;;;;;;;2.40;2.30;;;11.70;99.90;;;;;;5051966;28;20456;-64
2022/11/19 10:35:42;;;;;;;7.43;3.20;;;11.70;99.90;;;;;;5037831;28;20524;-64
2022/11/19 10:38:17;;;;;;;2.70;2.60;;;11.70;99.90;;;;;;5037811;28;20490;-64
2022/11/19 10:40:48;;;;;;;2.40;2.30;;;11.60;99.90;;;;;;5037643;28;20467;-64
2022/11/19 10:43:22;;;;;;;2.50;2.40;;;11.50;99.90;;;;;;5036817;28;20444;-64
2022/11/19 10:45:50;;;;;;;3.20;2.90;;;11.40;99.90;;;;;;5036669;28;20484;-63
2022/11/19 10:48:21;;;;;;;2.27;2.13;;;11.30;99.90;;;;;;5036781;28;20990;-64
2022/11/19 10:50:48;;;;;;;1.90;1.80;;;11.20;99.90;;;;;;5036340;28;20432;-65
2022/11/19 10:53:18;;;;;;;1.93;1.83;;;11.20;99.90;;;;;;5035945;28;20514;-64
2022/11/19 10:55:48;;;;;;;2.23;2.13;;;11.20;99.90;;;;;;5035754;28;20472;-63
2022/11/19 10:58:21;;;;;;;2.00;1.90;;;11.20;99.90;;;;;;5037051;28;20506;-64
2022/11/19 11:00:50;;;;;;;2.37;2.27;;;11.10;99.90;;;;;;5036062;28;20808;-64
2022/11/19 11:03:23;;;;;;;4.07;1.90;;;11.00;99.90;;;;;;5035860;28;20459;-64
2022/11/19 11:06:02;;;;;;;1.80;1.80;;;10.90;99.90;;;;;;5036193;28;20479;-64
2022/11/19 11:08:29;;;;;;;2.70;2.50;;;10.90;99.90;;;;;;5037133;28;20444;-64
2022/11/19 11:10:56;;;;;;;3.33;2.00;;;10.90;99.90;;;;;;5036173;28;20966;-64
2022/11/19 11:16:27;;;;;;;2.63;2.40;;;10.90;99.90;;;;;;5036773;28;20462;-64
2022/11/19 11:18:57;;;;;;;4.20;2.37;;;10.80;99.90;;;;;;5035048;28;20436;-64
2022/11/19 11:21:31;;;;;;;2.80;2.50;;;10.80;99.90;;;;;;5035532;28;20438;-64
2022/11/19 11:23:59;;;;;;;2.53;2.10;;;10.70;99.90;;;;;;5035622;28;20432;-64
2022/11/19 11:26:28;;;;;;;2.07;1.83;;;10.70;99.90;;;;;;5035734;28;20475;-64
2022/11/19 11:28:58;;;;;;;1.70;1.60;;;10.70;99.90;;;;;;5035640;28;20954;-65
2022/11/19 11:31:32;;;;;;;2.30;2.20;;;10.70;99.90;;;;;;5035791;28;20444;-64
2022/11/19 11:34:01;;;;;;;8.43;2.80;;;10.70;99.90;;;;;;5036057;28;20835;-63
2022/11/19 11:36:30;;;;;;;3.20;2.70;;;10.70;99.90;;;;;;5035779;28;20468;-64
2022/11/19 11:38:59;;;;;;;3.30;3.00;;;10.70;99.90;;;;;;5036012;28;20455;-64
2022/11/19 11:41:35;;;;;;;4.07;2.13;;;10.70;99.90;;;;;;5035557;28;20451;-63
2022/11/19 11:44:05;;;;;;;3.70;3.40;;;10.80;99.90;;;;;;5035737;28;20436;-64
2022/11/19 11:46:46;;;;;;;4.20;3.80;;;10.70;99.90;;;;;;5037087;28;20506;-64
2022/11/19 11:49:25;;;;;;;4.20;2.87;;;10.80;99.90;;;;;;5038745;28;20436;-64
2022/11/19 11:52:05;;;;;;;4.77;3.10;;;10.80;99.90;;;;;;5033927;28;20872;-64
2022/11/19 11:54:32;;;;;;;2.63;2.43;;;10.70;99.90;;;;;;5033562;28;20916;-65
2022/11/19 11:57:18;;;;;;;4.47;4.17;;;10.70;99.90;;;;;;5033584;28;20969;-64
2022/11/19 11:59:45;;;;;;;2.60;2.50;;;10.70;99.90;;;;;;5033976;28;20448;-63
2022/11/19 12:02:22;;;;;;;2.60;2.27;;;10.60;99.90;;;;;;5033882;28;20490;-63
2022/11/19 12:04:50;;;;;;;2.33;2.10;;;10.50;99.90;;;;;;5033849;28;20987;-63
2022/11/19 12:07:35;;;;;;;3.47;3.27;;;10.50;99.90;;;;;;5034549;28;20463;-64
2022/11/19 12:10:17;;;;;;;6.10;2.23;;;10.50;99.90;;;;;;5034005;28;20440;-64
2022/11/19 12:12:54;;;;;;;3.03;2.83;;;10.50;99.90;;;;;;5034105;28;20502;-64
2022/11/19 12:15:30;;;;;;;2.70;2.50;;;10.40;99.90;;;;;;5033895;28;20463;-64
2022/11/19 12:18:10;;;;;;;3.60;2.57;;;10.30;99.90;;;;;;5034066;28;20494;-66
2022/11/19 12:20:43;;;;;;;5.03;4.63;;;10.30;99.90;;;;;;5034191;28;20440;-64
2022/11/19 12:23:21;;;;;;;3.50;3.03;;;10.30;99.90;;;;;;5034110;28;20466;-65
2022/11/19 12:25:58;;;;;;;3.63;2.80;;;10.30;99.90;;;;;;5035049;28;20479;-64
2022/11/19 12:28:36;;;;;;;3.93;2.77;;;10.30;99.90;;;;;;5039665;28;20486;-64
2022/11/19 12:31:15;;;;;;;8.20;7.10;;;10.30;99.90;;;;;;5042587;28;20440;-64
2022/11/19 12:33:59;;;;;;;4.97;4.30;;;10.40;99.90;;;;;;5038628;28;20852;-65
2022/11/19 12:36:38;;;;;;;5.73;4.17;;;10.40;99.90;;;;;;5037761;28;20468;-64
2022/11/19 12:39:14;;;;;;;6.87;6.03;;;10.40;99.90;;;;;;5037972;28;20444;-65
2022/11/19 12:42:00;;;;;;;3.80;2.50;;;10.40;99.90;;;;;;5037745;28;20444;-64
2022/11/19 12:44:39;;;;;;;3.93;3.60;;;10.40;99.90;;;;;;5037810;28;20456;-65
2022/11/19 12:47:15;;;;;;;5.07;3.97;;;10.30;99.90;;;;;;5038065;28;20816;-65
2022/11/19 12:49:59;;;;;;;2.80;2.60;;;10.30;99.90;;;;;;5037471;28;20439;-64
2022/11/19 12:52:46;;;;;;;3.20;3.00;;;10.30;99.90;;;;;;5037315;28;20459;-65
2022/11/19 12:55:23;;;;;;;4.60;2.40;;;10.20;99.90;;;;;;5038643;28;20517;-65
2022/11/19 12:57:58;;;;;;;3.47;3.17;;;10.30;99.90;;;;;;5038682;28;20903;-64
2022/11/19 13:00:27;;;;;;;2.90;2.63;;;10.20;99.90;;;;;;5037946;28;20834;-65
2022/11/19 13:03:05;;;;;;;3.50;3.30;;;10.20;99.90;;;;;;5038469;28;20482;-65
2022/11/19 13:05:41;;;;;;;3.60;3.40;;;10.20;99.90;;;;;;5037369;28;20483;-64
2022/11/19 13:08:16;;;;;;;3.60;3.30;;;10.20;99.90;;;;;;5037690;28;20447;-65
2022/11/19 13:10:48;;;;;;;3.63;3.43;;;10.20;99.90;;;;;;5037145;28;20497;-64
2022/11/19 13:13:19;;;;;;;4.10;3.30;;;10.20;99.90;;;;;;5037561;28;20532;-64
2022/11/19 13:15:52;;;;;;;3.57;3.27;;;10.20;99.90;;;;;;5036741;28;20866;-64
2022/11/19 13:18:21;;;;;;;3.20;3.00;;;10.10;99.90;;;;;;5037298;28;20436;-64
2022/11/19 13:20:55;;;;;;;4.00;3.70;;;10.10;99.90;;;;;;5037653;28;20459;-65
2022/11/19 13:23:27;;;;;;;4.10;3.30;;;10.10;99.90;;;;;;5036839;28;20845;-65
2022/11/19 13:25:58;;;;;;;5.03;3.30;;;10.10;99.90;;;;;;5036475;28;20506;-64
2022/11/19 13:28:31;;;;;;;3.63;3.43;;;10.10;99.90;;;;;;5036678;28;20432;-64
2022/11/19 13:31:03;;;;;;;4.37;3.97;;;10.10;99.90;;;;;;5036426;28;20451;-64
2022/11/19 13:33:37;;;;;;;2.93;2.73;;;10.20;99.90;;;;;;5036411;28;20440;-64